Ottumwa Regional Airport
KOTM : now visible

Airfield :











YOU CAN JOIN US ON...

 
LOGIN :

Register | Disclaimer

   EN    FR    IT 

 









Legend :    VFR   Marginal VFR   IFR   Intensive IFR   Very Intensive IFR
Visi :
Ceiling :
>= 8 km
>= 3000ft
5 to 8 km
1000 to 3000 ft
1500m to 5 km
500 to 1000 ft
800 to 1500m
200 to 500 ft
< 800m
< 200 ft
Symbols :   Thunderstorms  Fog  Heavy snow  Heavy precipitations  Wind > 20 kt






- Airport Elevation : 845 ft
- IATA code : OTM


KOTM - Ottumwa Regional

CURRENT METAR :
  • 271739Z AUTO 01004KT 1/2SM FZFG VV003 M01/M01 A3004 RMK AO2 T10061011

EXPIRED METARs :
  • 271715Z AUTO 35005KT 1/2SM FZFG VV002 M01/M01 A3005 RMK AO2 T10111011
  • 271653Z AUTO 34006KT 1/4SM FZFG VV002 M01/M02 A3005 RMK AO2 SLP184 I1001 T10111017
  • 271553Z AUTO 33006KT 1/4SM FZFG VV003 M01/M02 A3003 RMK AO2 SLP178 T10111017
  • 271543Z AUTO 32007KT 1/4SM FZFG VV003 M01/M02 A3003 RMK AO2 T10111017
  • 271533Z AUTO 34006KT 1/2SM FZFG OVC003 M01/M02 A3002 RMK AO2 T10111017
  • 271512Z AUTO 32004KT 1 3/4SM BR OVC003 M01/M02 A3002 RMK AO2 T10111022
  • 271453Z AUTO 33003KT 4SM BR OVC003 M02/M02 A3001 RMK AO2 SLP173 I3000 T10171017 53014

TAF KOTM
Valid from the 27 at 18:00 until the 28 at 18:00 UTC


271723Z 2718/2818 35005KT 1/2SM FZFG VV002
FM272000 33005KT P6SM OVC003
FM281000 32005KT 4SM BR OVC003
FM281500 32005KT P6SM OVC004



MET'MAP, your aeronautical weather chart ! - Copyright ORBIFLY December 2007 - Disclaimer

ORBIFLY MET'MAP TEAM :

Programming & Development : Alexandra Zaïnal
Concept & original design : Baudouin d'Aumeries
Assistance for programming : Marc-Olivier Méhu
Technical & hardware support : Manuel Goepfert

Contact : metmap@orbifly.com




SOURCES & CREDITS :

   NOAA       Earth
Advisory